DADOS METEOROLÓGICOS

ONTEM
Time Temp. Dewp. Hum. Direção Velocidade Wind gust Bar. 1h Prec. 24h Prec.
00:08 14.9 9.7 71 270 0.3 0.8 1014 0.0000 0.0000
00:18 14.8 9.8 72 270 0.3 0.8 1013.9 0.0000 0.0000
00:28 14.7 9.7 72 270 0.3 1.1 1013.9 0.0000 0.0000
00:38 14.6 9.6 72 270 0.3 0.8 1014 0.0000 0.0000
00:48 14.6 9.6 72 270 0.3 0.8 1013.9 0.0000 0.0000
00:59 14.5 9.5 72 270 0.3 0.8 1013.8 0.0000 0.0000
01:08 14.5 9.5 72 270 0.3 0.8 1013.7 0.0000 0.0000
01:18 14.4 9.4 72 270 0.3 1.1 1013.8 0.0000 0.0000
01:28 14.3 9.3 72 270 0.3 0.8 1013.8 0.0000 0.0000
01:39 14.3 9.5 73 239 0.3 0.8 1013.8 0.0000 0.0000
01:49 14.3 9.5 73 270 0.3 0.8 1013.8 0.0000 0.0000
01:58 14.3 9.5 73 270 0.3 0.8 1013.7 0.0000 0.0000
02:09 14.3 9.5 73 270 0.3 0.8 1013.7 0.0000 0.0000
02:19 14.3 9.7 74 270 0.3 0.8 1013.7 0.0000 0.0000
02:29 14.3 9.5 73 270 0.3 1.1 1013.6 0.0000 0.0000
02:39 14.3 9.7 74 270 0.3 0.8 1013.7 0.0000 0.0000
02:49 14.3 9.7 74 270 0.3 0.8 1013.5 0.0000 0.0000
02:59 14.2 9.6 74 270 0.3 0.8 1013.5 0.0000 0.0000
03:09 14.2 9.4 73 270 0.3 0.8 1013.5 0.0000 0.0000
03:20 14.1 9.5 74 270 0.3 0.8 1013.4 0.0000 0.0000
03:29 14.2 9.6 74 270 0.3 1.1 1013.4 0.0000 0.0000
03:39 14.2 9.6 74 270 0.3 1.1 1013.2 0.0000 0.0000
03:49 14.2 9.6 74 270 0.3 0.8 1013.4 0.0000 0.0000
04:00 14.2 9.8 75 270 0.3 0.8 1013.3 0.0000 0.0000
04:11 14.3 9.9 75 270 0.3 0.8 1013.2 0.0000 0.0000
04:20 14.3 9.9 75 270 0.3 0.8 1013.2 0.0000 0.0000
04:30 14.3 9.9 75 270 0.3 1.1 1013 0.0000 0.0000
04:41 14.3 9.9 75 329 0.3 0.8 1012.8 0.0000 0.0000
04:51 14.3 9.9 75 270 0.3 0.8 1013 0.0000 0.0000
05:00 14.3 9.9 75 270 0.3 0.8 1012.8 0.0000 0.0000
05:11 14.3 9.9 75 270 0.3 0.8 1012.8 0.0000 0.0000
05:21 14.3 9.9 75 270 0.3 0.8 1012.8 0.0000 0.0000
05:31 14.3 9.9 75 270 0.3 0.8 1012.9 0.0000 0.0000
05:41 14.3 9.9 75 270 0.3 0.8 1012.7 0.0000 0.0000
05:51 14.3 9.9 75 270 0.3 1.1 1012.6 0.0000 0.0000
06:01 14.3 9.9 75 315 0.3 1.1 1012.6 0.0000 0.0000
06:11 14.3 9.9 75 270 0.3 0.8 1012.4 0.0000 0.0000
06:22 14.3 9.9 75 270 0.3 0.8 1012.5 0.0000 0.0000
06:31 14.3 10.1 76 270 0.3 0.8 1012.5 0.0000 0.0000
06:41 14.3 10.1 76 270 0.3 0.8 1012.5 0.0000 0.0000
06:51 14.3 10.1 76 270 0.3 0.8 1012.7 0.0000 0.0000
07:02 14.3 10.1 76 225 0.3 0.8 1012.5 0.0000 0.0000
07:11 14.3 10.1 76 270 0.3 0.8 1012.6 0.0000 0.0000
07:21 14.3 10.1 76 270 0.3 1.1 1012.6 0.0000 0.0000
07:32 14.4 10.2 76 270 0.3 1.1 1012.6 0.0000 0.0000
07:42 14.4 10.2 76 270 0.3 0.8 1012.7 0.0000 0.0000
07:52 14.4 10.2 76 270 0.3 0.8 1012.7 0.0000 0.0000
08:01 14.4 10.2 76 270 0.3 0.8 1012.7 0.0000 0.0000
08:12 14.5 10.3 76 270 0.3 0.8 1012.9 0.0000 0.0000
08:22 14.5 10.3 76 45 0.3 0.8 1012.8 0.0000 0.0000
08:32 14.5 10.3 76 315 0.3 0.8 1012.7 0.0000 0.0000
08:42 14.5 10.3 76 270 0.3 0.8 1012.8 0.0000 0.0000
08:52 14.6 10.4 76 45 0.3 1.1 1012.6 0.0000 0.0000
09:02 14.6 10.4 76 341 0.3 0.8 1012.9 0.0000 0.0000
09:12 14.7 10.5 76 270 0.3 1.1 1012.7 0.0000 0.0000
09:23 14.7 10.5 76 270 0.3 0.8 1012.7 0.0000 0.0000
09:33 14.8 10.6 76 315 0.3 0.8 1012.5 0.0000 0.0000
09:42 14.8 10.6 76 270 0.3 0.8 1012.6 0.0000 0.0000
09:53 14.9 10.7 76 270 0.3 0.8 1012.7 0.0000 0.0000
10:03 15 10.8 76 270 0.3 1.1 1012.6 0.0000 0.0000
10:13 15 10.8 76 206 0.3 0.8 1012.6 0.0000 0.0000
10:22 15 10.8 76 225 0.3 0.8 1012.4 0.0000 0.0000
10:33 15 11 77 149 0.3 0.8 1012.4 0.0000 0.0000
10:43 15.1 11.1 77 270 0.3 1.1 1012.5 0.0000 0.0000
10:53 15.4 11.4 77 270 0.3 1.1 1012.7 0.0000 0.0000
11:03 15.7 11.5 76 270 0.3 1.1 1012.7 0.0000 0.0000
11:13 15.9 11.7 76 234 0.3 1.1 1012.7 0.0000 0.0000
11:23 16.2 11.8 75 234 0.3 1.4 1012.6 0.0000 0.0000
11:33 16.5 11.9 74 240 0.3 1.1 1012.6 0.0000 0.0000
11:44 16.7 12 74 270 0.3 1.4 1012.6 0.0000 0.0000
11:54 16.9 12.2 74 270 0.3 1.1 1012.6 0.0000 0.0000
12:03 17.3 12.6 74 270 0.3 1.4 1012.4 0.0000 0.0000
12:14 19.5 14.5 73 236 0.3 2.2 1012.4 0.0000 0.0000
12:24 20.3 14 67 239 0.3 1.1 1012.4 0.0000 0.0000
12:34 19.9 13.1 65 270 0.3 1.4 1012.3 0.0000 0.0000
12:43 19.7 12.9 65 231 0.3 1.4 1012.4 0.0000 0.0000
12:54 19.5 13 66 270 0.3 1.1 1012.3 0.0000 0.0000
13:04 19.4 12.9 66 225 0.3 2.2 1012.3 0.0000 0.0000
13:14 19.3 12.8 66 270 0.3 1.4 1012.2 0.0000 0.0000
13:24 19.4 13.1 67 270 0.3 0.8 1012.2 0.0000 0.0000
13:34 19.3 12.8 66 229 0.8 2.5 1012.2 0.0000 0.0000
13:44 19.2 12.7 66 270 0.3 1.1 1012.1 0.0000 0.0000
13:54 19.1 12.6 66 270 0.3 1.1 1012 0.0000 0.0000
14:05 19 12.5 66 270 0.3 1.4 1011.9 0.0000 0.0000
14:15 18.9 12.4 66 270 0.3 1.1 1011.8 0.0000 0.0000
14:24 18.8 12.3 66 231 0.8 1.4 1011.7 0.0000 0.0000
14:34 18.9 12.6 67 225 0.3 1.1 1011.8 0.0000 0.0000
14:45 19 12.7 67 228 0.8 1.4 1011.8 0.0000 0.0000
14:55 19.1 12.6 66 270 0.3 1.1 1011.7 0.0000 0.0000
15:04 19.3 12.8 66 270 0.3 1.1 1011.7 0.0000 0.0000
15:15 19.4 12.9 66 239 0.3 1.9 1011.5 0.0000 0.0000
15:25 19.4 12.7 65 270 0.3 1.1 1011.5 0.0000 0.0000
15:35 19.4 12.4 64 270 0.3 2.2 1011.6 0.0000 0.0000
15:45 19.3 12.3 64 270 0.3 1.4 1011.4 0.0000 0.0000
15:55 19.3 12.3 64 270 0.3 1.1 1011.3 0.0000 0.0000
16:05 19.3 12.3 64 270 0.3 1.1 1011.3 0.0000 0.0000
16:15 19.2 12.2 64 270 0.3 1.1 1011.1 0.0000 0.0000
16:26 19.2 12.5 65 270 0.3 0.8 1011.2 0.0000 0.0000
16:36 19.1 12.1 64 270 0.3 1.1 1011 0.0000 0.0000
16:45 19.1 12.1 64 270 0.3 1.1 1011 0.0000 0.0000
16:55 19.1 12.1 64 239 0.3 1.1 1010.8 0.0000 0.0000
17:06 19 12.3 65 236 0.3 1.1 1011 0.0000 0.0000
17:16 19.1 12.1 64 270 0.8 1.4 1010.7 0.0000 0.0000
17:26 19.2 12 63 270 0.3 1.4 1010.8 0.0000 0.0000
17:36 19.4 12.2 63 270 0.3 1.4 1010.8 0.0000 0.0000
17:46 19.5 12 62 253 0.8 1.9 1010.8 0.0000 0.0000
17:56 19.5 12.3 63 270 0.3 1.1 1010.8 0.0000 0.0000
18:06 19.5 12 62 270 0.3 1.4 1010.8 0.0000 0.0000
18:16 19.5 12.3 63 270 0.3 1.4 1010.8 0.0000 0.0000
18:26 19.5 12.3 63 234 0.3 0.8 1010.8 0.0000 0.0000
18:36 19.4 12.2 63 270 0.3 1.1 1010.8 0.0000 0.0000
18:47 19.3 12.3 64 270 0.3 0.8 1010.8 0.0000 0.0000
18:57 19.1 12.4 65 270 0.3 1.1 1010.7 0.0000 0.0000
19:06 18.9 12.4 66 270 0.3 1.1 1010.8 0.0000 0.0000
19:16 20.2 13.9 67 315 0.3 1.1 1010.7 0.0000 0.0000
19:27 20.1 14 68 240 0.3 1.1 1010.7 0.0000 0.0000
19:37 20 13.9 68 231 0.3 1.1 1010.7 0.0000 0.0000
19:47 19.8 13.7 68 270 0.3 0.8 1010.8 0.0000 0.0000
19:57 19.7 13.9 69 270 0.3 1.1 1010.7 0.0000 0.0000
20:07 19.5 13.7 69 270 0.3 0.8 1010.7 0.0000 0.0000
20:17 19.3 13.5 69 270 0.3 1.1 1010.7 0.0000 0.0000
20:27 19.2 13.6 70 270 0.3 0.8 1010.7 0.0000 0.0000
20:38 19.1 13.5 70 270 0.3 1.1 1011 0.0000 0.0000
20:47 19 13.4 70 270 0.3 1.1 1011.1 0.0000 0.0000
20:57 18.9 13.5 71 270 0.3 1.4 1011.2 0.0000 0.0000
21:07 18.7 13.3 71 270 0.3 1.1 1011.2 0.0000 0.0000
21:18 18.6 13.2 71 270 0.3 1.1 1011.3 0.0000 0.0000
21:28 18.4 13.1 71 270 0.3 1.1 1011.4 0.0000 0.0000
21:37 18.3 13.2 72 270 0.3 1.1 1011.5 0.0000 0.0000
21:48 18.2 13.1 72 270 0.3 0.8 1011.6 0.0000 0.0000
21:58 18.1 13 72 270 0.3 0.8 1011.6 0.0000 0.0000
22:08 18 12.9 72 270 0.3 0.8 1011.4 0.0000 0.0000
22:18 17.9 13 73 270 0.3 0.8 1011.5 0.0000 0.0000
22:28 17.8 12.9 73 270 0.3 1.1 1011.6 0.0000 0.0000
22:38 17.7 12.8 73 270 0.3 0.8 1011.7 0.0000 0.0000
22:48 17.6 12.7 73 270 0.3 1.1 1011.5 0.0000 0.0000
22:59 17.4 12.5 73 270 0.3 1.1 1011.6 0.0000 0.0000
23:08 17.3 12.4 73 270 0.3 0.8 1011.6 0.0000 0.0000
23:18 17.2 12.1 72 270 0.3 0.8 1011.7 0.0000 0.0000
23:28 17 11.9 72 270 0.3 0.8 1011.9 0.0000 0.0000
23:39 17 12.1 73 270 0.3 1.1 1011.9 0.0000 0.0000
23:49 16.9 12 73 270 0.3 0.8 1012 0.0000 0.0000
23:58 16.8 11.9 73 270 0.3 1.1 1012 0.0000

ESTATÍSTICAS DO DIA

2021-09-17
TEMPERATURA
MÉDIA
16.8
MÁXIMO
20.3
12:24
MÍNIMO
14.1
03:20
PRESSÃO
MÉDIA
1012.2
MÁXIMO
1014.0
00:08
MÍNIMO
1010.7
17:16
P. ORVALHO
MÉDIA
11.5
MÁXIMO
14.5
12:14
MÍNIMO
9.3
01:28
HUMIDADE
MÉDIA
71
MÁXIMO
77
10:33
MÍNIMO
62
17:46
VELOCIDADE DO VENTO
MÉDIA
0.3
MÁXIMO
0.8
13:34
WIND GUST
MÉDIA
1.0
MÁXIMO
2.5
13:34
DIREÇÃO DO VENTO
PREDOMINANTE
W
79%
N
0.7
NE
1.4
E
0.0
SE
0.7
S
0.0
SW
14.7
W
79.0
NW
3.5
PRECIPITAÇÃO
CHUVA HORA
0.0
CHUVA DIA
0.0
TEMPERATURA (°C)
MÍNIMO
14.1
MÁXIMO
20.3
MÉDIA
16.8
PRESSÃO (hpa)
MÍNIMO
1010.7
MÁXIMO
1014.0
MÉDIA
1012.2
DEVICE